East Wemyss, United Kingdom
Current Conditions -  °F | °C
As of 11:50 AM on Thursday 29 Jan 2015 (Local Time) from EGQL Reporting Station
Scattered Clouds Scattered Clouds  
Wind Chill: 26°   Ceiling: Unl
Heat Index: 36°   Visibility: 6mi
Dew Point: 30°   Wind: 16mph
Humidity: 81%   Direction: 250°WSW
Pressure: 28.7"   Gusts: NA
Location:  56.16°N, 3.06°W
Report Text: EGQL 291150Z 25014KT 9999 FEW040 SCT150 02/M01 Q0972 BLU
Loading
Personal Weather Stations






























Interactive Weather Map New forecast layout! Learn more

10-Day Weather Forecast

Advertisements
Track Severe Weather on mobile